sensor_id;sensor_type;location;lat;lon;timestamp;pressure;altitude;pressure_sealevel;temperature;humidity
32131;BME280;18639;50.716;7.086;2022-12-29T00:02:15;99324.84;;;11.25;100.00
32131;BME280;18639;50.716;7.086;2022-12-29T00:04:41;99295.47;;;11.26;100.00
32131;BME280;18639;50.716;7.086;2022-12-29T00:07:07;99306.91;;;11.33;100.00
32131;BME280;18639;50.716;7.086;2022-12-29T00:09:33;99259.84;;;11.09;100.00
32131;BME280;18639;50.716;7.086;2022-12-29T00:11:59;99261.94;;;11.15;100.00
32131;BME280;18639;50.716;7.086;2022-12-29T00:14:25;99231.22;;;11.01;100.00
32131;BME280;18639;50.716;7.086;2022-12-29T00:17:09;99276.66;;;11.24;100.00
32131;BME280;18639;50.716;7.086;2022-12-29T00:19:34;99238.31;;;10.99;100.00
32131;BME280;18639;50.716;7.086;2022-12-29T00:22:18;99272.53;;;11.22;100.00
32131;BME280;18639;50.716;7.086;2022-12-29T00:25:03;99283.06;;;11.30;100.00
32131;BME280;18639;50.716;7.086;2022-12-29T00:27:47;99246.97;;;11.19;100.00
32131;BME280;18639;50.716;7.086;2022-12-29T00:30:31;99285.97;;;11.36;100.00
32131;BME280;18639;50.716;7.086;2022-12-29T00:33:17;99272.09;;;11.37;100.00
32131;BME280;18639;50.716;7.086;2022-12-29T00:36:46;99246.84;;;11.20;100.00
32131;BME280;18639;50.716;7.086;2022-12-29T00:38:57;99273.59;;;11.40;100.00
32131;BME280;18639;50.716;7.086;2022-12-29T00:41:42;99247.50;;;11.22;100.00
32131;BME280;18639;50.716;7.086;2022-12-29T00:44:26;99260.34;;;11.33;100.00
32131;BME280;18639;50.716;7.086;2022-12-29T00:46:51;99223.69;;;11.19;100.00
32131;BME280;18639;50.716;7.086;2022-12-29T00:49:16;99236.41;;;11.31;100.00
32131;BME280;18639;50.716;7.086;2022-12-29T00:52:08;99221.66;;;11.22;100.00
32131;BME280;18639;50.716;7.086;2022-12-29T00:54:39;99232.81;;;11.23;100.00
32131;BME280;18639;50.716;7.086;2022-12-29T00:57:06;99263.94;;;11.42;100.00
32131;BME280;18639;50.716;7.086;2022-12-29T00:59:34;99261.19;;;11.44;100.00
32131;BME280;18639;50.716;7.086;2022-12-29T01:02:00;99258.19;;;11.38;100.00
32131;BME280;18639;50.716;7.086;2022-12-29T01:04:26;99271.31;;;11.47;100.00
32131;BME280;18639;50.716;7.086;2022-12-29T01:06:51;99257.53;;;11.46;100.00
32131;BME280;18639;50.716;7.086;2022-12-29T01:09:18;99256.84;;;11.44;100.00
32131;BME280;18639;50.716;7.086;2022-12-29T01:12:03;99222.75;;;11.20;100.00
32131;BME280;18639;50.716;7.086;2022-12-29T01:14:28;99236.00;;;11.36;100.00
32131;BME280;18639;50.716;7.086;2022-12-29T01:16:55;99252.50;;;11.45;100.00
32131;BME280;18639;50.716;7.086;2022-12-29T01:19:20;99223.06;;;11.26;100.00
32131;BME280;18639;50.716;7.086;2022-12-29T01:21:46;99248.66;;;11.39;100.00
32131;BME280;18639;50.716;7.086;2022-12-29T01:24:13;99262.31;;;11.51;100.00
32131;BME280;18639;50.716;7.086;2022-12-29T01:26:38;99250.19;;;11.42;100.00
32131;BME280;18639;50.716;7.086;2022-12-29T01:29:04;99221.94;;;11.19;100.00
32131;BME280;18639;50.716;7.086;2022-12-29T01:31:30;99232.41;;;11.27;100.00
32131;BME280;18639;50.716;7.086;2022-12-29T01:33:55;99240.63;;;11.32;100.00
32131;BME280;18639;50.716;7.086;2022-12-29T01:36:20;99256.03;;;11.44;100.00
32131;BME280;18639;50.716;7.086;2022-12-29T01:38:46;99256.00;;;11.34;100.00
32131;BME280;18639;50.716;7.086;2022-12-29T01:41:13;99247.91;;;11.48;100.00
32131;BME280;18639;50.716;7.086;2022-12-29T01:43:40;99262.84;;;11.45;100.00
32131;BME280;18639;50.716;7.086;2022-12-29T01:46:32;99230.53;;;11.29;100.00
32131;BME280;18639;50.716;7.086;2022-12-29T01:49:05;99241.47;;;11.43;100.00
32131;BME280;18639;50.716;7.086;2022-12-29T01:51:39;99244.19;;;11.41;100.00
32131;BME280;18639;50.716;7.086;2022-12-29T01:54:10;99253.31;;;11.45;100.00
32131;BME280;18639;50.716;7.086;2022-12-29T01:56:38;99247.06;;;11.48;100.00
32131;BME280;18639;50.716;7.086;2022-12-29T01:59:08;99236.16;;;11.44;100.00
32131;BME280;18639;50.716;7.086;2022-12-29T02:01:36;99215.84;;;11.39;100.00
32131;BME280;18639;50.716;7.086;2022-12-29T02:04:01;99238.09;;;11.52;100.00
32131;BME280;18639;50.716;7.086;2022-12-29T02:06:39;99244.09;;;11.52;100.00
32131;BME280;18639;50.716;7.086;2022-12-29T02:09:06;99235.50;;;11.52;100.00
32131;BME280;18639;50.716;7.086;2022-12-29T02:11:31;99209.19;;;11.37;100.00
32131;BME280;18639;50.716;7.086;2022-12-29T02:14:31;99217.81;;;11.57;100.00
32131;BME280;18639;50.716;7.086;2022-12-29T02:20:04;99185.81;;;11.48;100.00
32131;BME280;18639;50.716;7.086;2022-12-29T02:26:14;99185.97;;;11.66;100.00
32131;BME280;18639;50.716;7.086;2022-12-29T02:29:15;99191.66;;;11.60;100.00
32131;BME280;18639;50.716;7.086;2022-12-29T02:31:56;99181.19;;;11.52;100.00
32131;BME280;18639;50.716;7.086;2022-12-29T02:34:26;99177.25;;;11.57;100.00
32131;BME280;18639;50.716;7.086;2022-12-29T02:37:07;99182.00;;;11.62;100.00
32131;BME280;18639;50.716;7.086;2022-12-29T02:39:54;99179.69;;;11.59;100.00
32131;BME280;18639;50.716;7.086;2022-12-29T02:42:34;99164.53;;;11.45;100.00
32131;BME280;18639;50.716;7.086;2022-12-29T02:45:13;99158.25;;;11.28;100.00
32131;BME280;18639;50.716;7.086;2022-12-29T02:47:51;99191.53;;;11.52;100.00
32131;BME280;18639;50.716;7.086;2022-12-29T02:50:43;99185.53;;;11.51;100.00
32131;BME280;18639;50.716;7.086;2022-12-29T02:53:15;99169.31;;;11.39;100.00
32131;BME280;18639;50.716;7.086;2022-12-29T02:55:48;99171.63;;;11.43;100.00
32131;BME280;18639;50.716;7.086;2022-12-29T02:58:22;99180.47;;;11.40;100.00
32131;BME280;18639;50.716;7.086;2022-12-29T03:04:07;99180.34;;;11.51;100.00
32131;BME280;18639;50.716;7.086;2022-12-29T03:15:18;99147.97;;;11.57;100.00
32131;BME280;18639;50.716;7.086;2022-12-29T03:18:10;99150.97;;;11.62;100.00
32131;BME280;18639;50.716;7.086;2022-12-29T03:20:47;99156.25;;;11.70;100.00
32131;BME280;18639;50.716;7.086;2022-12-29T03:23:16;99141.84;;;11.58;100.00
32131;BME280;18639;50.716;7.086;2022-12-29T03:25:47;99126.16;;;11.40;100.00
32131;BME280;18639;50.716;7.086;2022-12-29T03:28:19;99143.59;;;11.57;100.00
32131;BME280;18639;50.716;7.086;2022-12-29T03:30:47;99141.97;;;11.47;100.00
32131;BME280;18639;50.716;7.086;2022-12-29T03:33:16;99161.59;;;11.59;100.00
32131;BME280;18639;50.716;7.086;2022-12-29T03:35:44;99154.63;;;11.59;100.00
32131;BME280;18639;50.716;7.086;2022-12-29T03:38:30;99151.91;;;11.61;100.00
32131;BME280;18639;50.716;7.086;2022-12-29T03:41:00;99146.06;;;11.59;100.00
32131;BME280;18639;50.716;7.086;2022-12-29T03:43:29;99154.25;;;11.64;100.00
32131;BME280;18639;50.716;7.086;2022-12-29T03:45:54;99151.78;;;11.62;100.00
32131;BME280;18639;50.716;7.086;2022-12-29T03:48:20;99140.19;;;11.57;100.00
32131;BME280;18639;50.716;7.086;2022-12-29T03:50:45;99157.66;;;11.64;100.00
32131;BME280;18639;50.716;7.086;2022-12-29T03:53:10;99123.56;;;11.40;100.00
32131;BME280;18639;50.716;7.086;2022-12-29T03:55:35;99135.31;;;11.54;100.00
32131;BME280;18639;50.716;7.086;2022-12-29T03:58:01;99129.16;;;11.55;100.00
32131;BME280;18639;50.716;7.086;2022-12-29T04:00:26;99137.59;;;11.57;100.00
32131;BME280;18639;50.716;7.086;2022-12-29T04:02:51;99114.97;;;11.39;100.00
32131;BME280;18639;50.716;7.086;2022-12-29T04:05:17;99136.78;;;11.56;100.00
32131;BME280;18639;50.716;7.086;2022-12-29T04:07:42;99103.00;;;11.38;100.00
32131;BME280;18639;50.716;7.086;2022-12-29T04:10:07;99118.25;;;11.42;100.00
32131;BME280;18639;50.716;7.086;2022-12-29T04:12:33;99123.84;;;11.47;100.00
32131;BME280;18639;50.716;7.086;2022-12-29T04:14:58;99122.75;;;11.39;100.00
32131;BME280;18639;50.716;7.086;2022-12-29T04:17:23;99129.44;;;11.42;100.00
32131;BME280;18639;50.716;7.086;2022-12-29T04:19:49;99108.97;;;11.29;100.00
32131;BME280;18639;50.716;7.086;2022-12-29T04:22:14;99102.03;;;11.20;100.00
32131;BME280;18639;50.716;7.086;2022-12-29T04:24:39;99124.63;;;11.28;100.00
32131;BME280;18639;50.716;7.086;2022-12-29T04:27:04;99036.22;;;10.75;100.00
32131;BME280;18639;50.716;7.086;2022-12-29T04:29:30;99059.13;;;10.89;100.00
32131;BME280;18639;50.716;7.086;2022-12-29T04:31:55;99108.97;;;11.20;100.00
32131;BME280;18639;50.716;7.086;2022-12-29T04:34:20;99086.34;;;11.03;100.00
32131;BME280;18639;50.716;7.086;2022-12-29T04:36:45;99070.13;;;10.91;100.00
32131;BME280;18639;50.716;7.086;2022-12-29T04:39:11;99101.88;;;11.12;100.00
32131;BME280;18639;50.716;7.086;2022-12-29T04:41:36;99102.97;;;11.10;100.00
32131;BME280;18639;50.716;7.086;2022-12-29T04:44:01;99095.63;;;11.05;100.00
32131;BME280;18639;50.716;7.086;2022-12-29T04:46:27;99056.38;;;10.81;100.00
32131;BME280;18639;50.716;7.086;2022-12-29T04:48:52;99104.09;;;11.26;100.00
32131;BME280;18639;50.716;7.086;2022-12-29T04:51:17;99071.66;;;11.13;100.00
32131;BME280;18639;50.716;7.086;2022-12-29T04:53:42;99100.28;;;11.30;100.00
32131;BME280;18639;50.716;7.086;2022-12-29T04:56:08;99059.66;;;10.92;100.00
32131;BME280;18639;50.716;7.086;2022-12-29T04:58:34;99112.53;;;11.38;100.00
32131;BME280;18639;50.716;7.086;2022-12-29T05:01:00;99100.00;;;11.33;100.00
32131;BME280;18639;50.716;7.086;2022-12-29T05:03:25;99099.59;;;11.28;100.00
32131;BME280;18639;50.716;7.086;2022-12-29T05:05:53;99109.00;;;11.39;100.00
32131;BME280;18639;50.716;7.086;2022-12-29T05:08:19;99105.31;;;11.32;100.00
32131;BME280;18639;50.716;7.086;2022-12-29T05:10:45;99115.78;;;11.30;100.00
32131;BME280;18639;50.716;7.086;2022-12-29T05:13:11;99105.16;;;11.24;100.00
32131;BME280;18639;50.716;7.086;2022-12-29T05:15:36;99099.69;;;11.17;100.00
32131;BME280;18639;50.716;7.086;2022-12-29T05:18:01;99117.41;;;11.22;100.00
32131;BME280;18639;50.716;7.086;2022-12-29T05:20:26;99094.38;;;11.09;100.00
32131;BME280;18639;50.716;7.086;2022-12-29T05:22:52;99100.50;;;11.08;100.00
32131;BME280;18639;50.716;7.086;2022-12-29T05:25:17;99102.41;;;11.06;100.00
32131;BME280;18639;50.716;7.086;2022-12-29T05:27:42;99128.53;;;11.13;100.00
32131;BME280;18639;50.716;7.086;2022-12-29T05:30:08;99123.22;;;11.05;100.00
32131;BME280;18639;50.716;7.086;2022-12-29T05:32:34;99113.66;;;10.95;100.00
32131;BME280;18639;50.716;7.086;2022-12-29T05:34:59;99134.63;;;11.02;100.00
32131;BME280;18639;50.716;7.086;2022-12-29T05:37:24;99145.16;;;11.10;100.00
32131;BME280;18639;50.716;7.086;2022-12-29T05:39:49;99164.72;;;11.03;100.00
32131;BME280;18639;50.716;7.086;2022-12-29T05:42:15;99168.75;;;10.96;100.00
32131;BME280;18639;50.716;7.086;2022-12-29T05:44:40;99158.69;;;10.93;100.00
32131;BME280;18639;50.716;7.086;2022-12-29T05:47:05;99128.69;;;10.71;100.00
32131;BME280;18639;50.716;7.086;2022-12-29T05:49:30;99138.38;;;10.79;100.00
32131;BME280;18639;50.716;7.086;2022-12-29T05:51:56;99149.66;;;10.78;100.00
32131;BME280;18639;50.716;7.086;2022-12-29T05:54:21;99183.19;;;10.98;100.00
32131;BME280;18639;50.716;7.086;2022-12-29T05:56:46;99172.03;;;10.98;100.00
32131;BME280;18639;50.716;7.086;2022-12-29T05:59:12;99178.44;;;10.94;100.00
32131;BME280;18639;50.716;7.086;2022-12-29T06:01:37;99176.09;;;10.91;100.00
32131;BME280;18639;50.716;7.086;2022-12-29T06:04:02;99176.09;;;10.91;100.00
32131;BME280;18639;50.716;7.086;2022-12-29T06:06:28;99174.00;;;10.85;100.00
32131;BME280;18639;50.716;7.086;2022-12-29T06:08:53;99193.34;;;10.90;100.00
32131;BME280;18639;50.716;7.086;2022-12-29T06:11:18;99196.22;;;10.87;100.00
32131;BME280;18639;50.716;7.086;2022-12-29T06:13:43;99184.19;;;10.77;100.00
32131;BME280;18639;50.716;7.086;2022-12-29T06:16:09;99156.63;;;10.57;100.00
32131;BME280;18639;50.716;7.086;2022-12-29T06:18:34;99192.38;;;10.82;100.00
32131;BME280;18639;50.716;7.086;2022-12-29T06:21:01;99193.59;;;10.78;100.00
32131;BME280;18639;50.716;7.086;2022-12-29T06:23:26;99203.00;;;10.79;100.00
32131;BME280;18639;50.716;7.086;2022-12-29T06:25:52;99225.78;;;10.74;100.00
32131;BME280;18639;50.716;7.086;2022-12-29T06:28:17;99195.94;;;10.60;100.00
32131;BME280;18639;50.716;7.086;2022-12-29T06:30:44;99198.25;;;10.63;100.00
32131;BME280;18639;50.716;7.086;2022-12-29T06:33:10;99207.09;;;10.61;100.00
32131;BME280;18639;50.716;7.086;2022-12-29T06:35:36;99179.94;;;10.45;100.00
32131;BME280;18639;50.716;7.086;2022-12-29T06:38:01;99199.03;;;10.54;100.00
32131;BME280;18639;50.716;7.086;2022-12-29T06:40:26;99170.38;;;10.36;100.00
32131;BME280;18639;50.716;7.086;2022-12-29T06:42:52;99178.75;;;10.29;100.00
32131;BME280;18639;50.716;7.086;2022-12-29T06:45:17;99217.69;;;10.58;100.00
32131;BME280;18639;50.716;7.086;2022-12-29T06:47:42;99216.97;;;10.55;100.00
32131;BME280;18639;50.716;7.086;2022-12-29T06:50:08;99194.31;;;10.38;100.00
32131;BME280;18639;50.716;7.086;2022-12-29T06:52:33;99224.03;;;10.53;100.00
32131;BME280;18639;50.716;7.086;2022-12-29T06:54:58;99225.63;;;10.45;100.00
32131;BME280;18639;50.716;7.086;2022-12-29T06:57:24;99239.78;;;10.50;100.00
32131;BME280;18639;50.716;7.086;2022-12-29T06:59:51;99231.94;;;10.52;100.00
32131;BME280;18639;50.716;7.086;2022-12-29T07:02:16;99227.81;;;10.49;100.00
32131;BME280;18639;50.716;7.086;2022-12-29T07:04:44;99216.50;;;10.41;100.00
32131;BME280;18639;50.716;7.086;2022-12-29T07:07:10;99223.59;;;10.48;100.00
32131;BME280;18639;50.716;7.086;2022-12-29T07:09:35;99219.63;;;10.44;100.00
32131;BME280;18639;50.716;7.086;2022-12-29T07:12:00;99198.41;;;10.41;100.00
32131;BME280;18639;50.716;7.086;2022-12-29T07:14:25;99205.91;;;10.44;100.00
32131;BME280;18639;50.716;7.086;2022-12-29T07:16:51;99204.41;;;10.41;100.00
32131;BME280;18639;50.716;7.086;2022-12-29T07:19:16;99196.22;;;10.36;100.00
32131;BME280;18639;50.716;7.086;2022-12-29T07:21:41;99205.44;;;10.39;100.00
32131;BME280;18639;50.716;7.086;2022-12-29T07:24:07;99225.56;;;10.35;100.00
32131;BME280;18639;50.716;7.086;2022-12-29T07:26:32;99231.97;;;10.41;100.00
32131;BME280;18639;50.716;7.086;2022-12-29T07:29:00;99234.06;;;10.47;100.00
32131;BME280;18639;50.716;7.086;2022-12-29T07:31:25;99244.75;;;10.42;100.00
32131;BME280;18639;50.716;7.086;2022-12-29T07:33:50;99234.25;;;10.34;100.00
32131;BME280;18639;50.716;7.086;2022-12-29T07:36:16;99258.47;;;10.43;100.00
32131;BME280;18639;50.716;7.086;2022-12-29T07:38:41;99261.28;;;10.51;100.00
32131;BME280;18639;50.716;7.086;2022-12-29T07:41:07;99260.63;;;10.38;100.00
32131;BME280;18639;50.716;7.086;2022-12-29T07:43:33;99271.88;;;10.37;100.00
32131;BME280;18639;50.716;7.086;2022-12-29T07:45:59;99274.34;;;10.38;100.00
32131;BME280;18639;50.716;7.086;2022-12-29T07:48:24;99260.56;;;10.28;100.00
32131;BME280;18639;50.716;7.086;2022-12-29T07:50:49;99269.44;;;10.35;100.00
32131;BME280;18639;50.716;7.086;2022-12-29T07:53:15;99257.97;;;10.28;100.00
32131;BME280;18639;50.716;7.086;2022-12-29T07:55:41;99270.88;;;10.28;100.00
32131;BME280;18639;50.716;7.086;2022-12-29T07:58:06;99295.50;;;10.32;100.00
32131;BME280;18639;50.716;7.086;2022-12-29T08:00:32;99294.56;;;10.33;100.00
32131;BME280;18639;50.716;7.086;2022-12-29T08:02:57;99302.75;;;10.38;100.00
32131;BME280;18639;50.716;7.086;2022-12-29T08:05:23;99292.53;;;10.37;100.00
32131;BME280;18639;50.716;7.086;2022-12-29T08:07:48;99296.66;;;10.39;100.00
32131;BME280;18639;50.716;7.086;2022-12-29T08:10:14;99277.56;;;10.31;100.00
32131;BME280;18639;50.716;7.086;2022-12-29T08:12:40;99304.16;;;10.42;100.00
32131;BME280;18639;50.716;7.086;2022-12-29T08:15:07;99310.72;;;10.46;100.00
32131;BME280;18639;50.716;7.086;2022-12-29T08:17:32;99291.88;;;10.35;100.00
32131;BME280;18639;50.716;7.086;2022-12-29T08:19:58;99323.38;;;10.49;100.00
32131;BME280;18639;50.716;7.086;2022-12-29T08:22:24;99322.19;;;10.53;100.00
32131;BME280;18639;50.716;7.086;2022-12-29T08:24:49;99312.94;;;10.51;100.00
32131;BME280;18639;50.716;7.086;2022-12-29T08:27:14;99300.63;;;10.43;100.00
32131;BME280;18639;50.716;7.086;2022-12-29T08:29:40;99297.28;;;10.52;100.00
32131;BME280;18639;50.716;7.086;2022-12-29T08:32:05;99276.44;;;10.44;100.00
32131;BME280;18639;50.716;7.086;2022-12-29T08:34:31;99313.50;;;10.54;100.00
32131;BME280;18639;50.716;7.086;2022-12-29T08:36:57;99292.84;;;10.54;100.00
32131;BME280;18639;50.716;7.086;2022-12-29T08:39:22;99297.50;;;10.61;100.00
32131;BME280;18639;50.716;7.086;2022-12-29T08:41:47;99311.81;;;10.65;100.00
32131;BME280;18639;50.716;7.086;2022-12-29T08:44:13;99288.59;;;10.53;100.00
32131;BME280;18639;50.716;7.086;2022-12-29T08:46:38;99314.59;;;10.73;100.00
32131;BME280;18639;50.716;7.086;2022-12-29T08:49:03;99302.41;;;10.64;100.00
32131;BME280;18639;50.716;7.086;2022-12-29T08:51:28;99313.19;;;10.69;100.00
32131;BME280;18639;50.716;7.086;2022-12-29T08:53:54;99308.47;;;10.74;100.00
32131;BME280;18639;50.716;7.086;2022-12-29T08:56:19;99311.31;;;10.71;100.00
32131;BME280;18639;50.716;7.086;2022-12-29T08:58:44;99325.38;;;10.78;100.00
32131;BME280;18639;50.716;7.086;2022-12-29T09:01:10;99311.50;;;10.79;100.00
32131;BME280;18639;50.716;7.086;2022-12-29T09:03:35;99304.38;;;10.71;100.00
32131;BME280;18639;50.716;7.086;2022-12-29T09:06:00;99325.38;;;10.78;100.00
32131;BME280;18639;50.716;7.086;2022-12-29T09:08:26;99334.94;;;10.87;100.00
32131;BME280;18639;50.716;7.086;2022-12-29T09:10:51;99309.28;;;10.74;100.00
32131;BME280;18639;50.716;7.086;2022-12-29T09:13:17;99343.91;;;10.83;100.00
32131;BME280;18639;50.716;7.086;2022-12-29T09:15:43;99340.25;;;10.85;100.00
32131;BME280;18639;50.716;7.086;2022-12-29T09:18:09;99357.50;;;10.85;100.00
32131;BME280;18639;50.716;7.086;2022-12-29T09:20:34;99349.06;;;10.83;100.00
32131;BME280;18639;50.716;7.086;2022-12-29T09:22:59;99357.00;;;10.91;100.00
32131;BME280;18639;50.716;7.086;2022-12-29T09:25:25;99347.25;;;10.94;100.00
32131;BME280;18639;50.716;7.086;2022-12-29T09:27:51;99350.13;;;11.01;100.00
32131;BME280;18639;50.716;7.086;2022-12-29T09:30:22;99353.97;;;11.07;100.00
32131;BME280;18639;50.716;7.086;2022-12-29T09:32:48;99352.22;;;11.07;100.00
32131;BME280;18639;50.716;7.086;2022-12-29T09:35:14;99324.16;;;10.82;100.00
32131;BME280;18639;50.716;7.086;2022-12-29T09:37:40;99359.53;;;11.02;100.00
32131;BME280;18639;50.716;7.086;2022-12-29T09:40:06;99355.50;;;11.09;100.00
32131;BME280;18639;50.716;7.086;2022-12-29T09:42:38;99339.34;;;10.96;100.00
32131;BME280;18639;50.716;7.086;2022-12-29T09:45:17;99370.19;;;11.09;100.00
32131;BME280;18639;50.716;7.086;2022-12-29T09:47:44;99358.28;;;10.96;100.00
32131;BME280;18639;50.716;7.086;2022-12-29T09:50:18;99371.03;;;11.09;100.00
32131;BME280;18639;50.716;7.086;2022-12-29T09:52:53;99374.03;;;11.14;100.00
32131;BME280;18639;50.716;7.086;2022-12-29T09:55:28;99368.88;;;11.14;100.00
32131;BME280;18639;50.716;7.086;2022-12-29T09:57:58;99366.03;;;11.17;100.00
32131;BME280;18639;50.716;7.086;2022-12-29T10:00:37;99376.31;;;11.28;100.00
32131;BME280;18639;50.716;7.086;2022-12-29T10:03:13;99363.88;;;11.22;100.00
32131;BME280;18639;50.716;7.086;2022-12-29T10:08:20;99380.19;;;11.44;100.00
32131;BME280;18639;50.716;7.086;2022-12-29T10:22:00;99379.53;;;11.72;100.00
32131;BME280;18639;50.716;7.086;2022-12-29T10:24:30;99356.00;;;11.54;100.00
32131;BME280;18639;50.716;7.086;2022-12-29T10:26:58;99379.88;;;11.58;100.00
32131;BME280;18639;50.716;7.086;2022-12-29T10:29:27;99373.56;;;11.51;100.00
32131;BME280;18639;50.716;7.086;2022-12-29T10:32:30;99387.88;;;11.55;100.00
32131;BME280;18639;50.716;7.086;2022-12-29T10:35:05;99373.25;;;11.44;100.00
32131;BME280;18639;50.716;7.086;2022-12-29T10:37:43;99383.47;;;11.46;100.00
32131;BME280;18639;50.716;7.086;2022-12-29T10:40:27;99382.44;;;11.48;100.00
32131;BME280;18639;50.716;7.086;2022-12-29T10:42:56;99374.50;;;11.50;100.00
32131;BME280;18639;50.716;7.086;2022-12-29T10:45:25;99370.03;;;11.52;100.00
32131;BME280;18639;50.716;7.086;2022-12-29T10:48:04;99383.84;;;11.62;100.00
32131;BME280;18639;50.716;7.086;2022-12-29T10:50:33;99380.31;;;11.63;100.00
32131;BME280;18639;50.716;7.086;2022-12-29T10:53:00;99394.28;;;11.81;100.00
32131;BME280;18639;50.716;7.086;2022-12-29T10:55:45;99407.72;;;11.96;97.81
32131;BME280;18639;50.716;7.086;2022-12-29T10:58:13;99385.91;;;11.98;97.71
32131;BME280;18639;50.716;7.086;2022-12-29T11:00:39;99349.19;;;11.74;97.66
32131;BME280;18639;50.716;7.086;2022-12-29T11:06:16;99397.59;;;11.83;95.28
32131;BME280;18639;50.716;7.086;2022-12-29T11:09:02;99385.88;;;11.89;98.30
32131;BME280;18639;50.716;7.086;2022-12-29T11:11:36;99396.13;;;11.90;97.50
32131;BME280;18639;50.716;7.086;2022-12-29T11:14:29;99393.22;;;11.84;96.13
32131;BME280;18639;50.716;7.086;2022-12-29T11:17:00;99403.31;;;11.87;97.12
32131;BME280;18639;50.716;7.086;2022-12-29T11:19:28;99383.94;;;11.81;96.90
32131;BME280;18639;50.716;7.086;2022-12-29T11:22:12;99398.94;;;11.87;95.97
32131;BME280;18639;50.716;7.086;2022-12-29T11:24:44;99381.41;;;11.70;95.95
32131;BME280;18639;50.716;7.086;2022-12-29T11:27:21;99399.22;;;11.84;97.38
32131;BME280;18639;50.716;7.086;2022-12-29T11:29:49;99396.88;;;11.81;96.23
32131;BME280;18639;50.716;7.086;2022-12-29T11:32:22;99407.13;;;11.82;97.13
32131;BME280;18639;50.716;7.086;2022-12-29T11:34:48;99385.84;;;11.79;96.56
32131;BME280;18639;50.716;7.086;2022-12-29T11:37:36;99394.06;;;11.84;97.43
32131;BME280;18639;50.716;7.086;2022-12-29T11:40:17;99395.13;;;11.81;96.54
32131;BME280;18639;50.716;7.086;2022-12-29T11:42:54;99400.13;;;11.73;96.42
32131;BME280;18639;50.716;7.086;2022-12-29T11:45:25;99406.81;;;11.76;96.29
32131;BME280;18639;50.716;7.086;2022-12-29T11:48:16;99428.38;;;11.86;96.49
32131;BME280;18639;50.716;7.086;2022-12-29T11:50:49;99423.34;;;11.85;95.53
32131;BME280;18639;50.716;7.086;2022-12-29T11:53:25;99422.13;;;11.89;96.42
32131;BME280;18639;50.716;7.086;2022-12-29T11:55:57;99417.50;;;11.92;94.78
32131;BME280;18639;50.716;7.086;2022-12-29T11:58:32;99390.81;;;11.71;96.37
32131;BME280;18639;50.716;7.086;2022-12-29T12:01:05;99433.31;;;11.89;94.74
32131;BME280;18639;50.716;7.086;2022-12-29T12:03:35;99422.91;;;11.79;96.10
32131;BME280;18639;50.716;7.086;2022-12-29T12:06:02;99428.66;;;11.83;94.60
32131;BME280;18639;50.716;7.086;2022-12-29T12:08:38;99424.56;;;11.80;94.94
32131;BME280;18639;50.716;7.086;2022-12-29T12:11:17;99446.97;;;11.91;94.86
32131;BME280;18639;50.716;7.086;2022-12-29T12:13:58;99450.50;;;11.90;94.06
32131;BME280;18639;50.716;7.086;2022-12-29T12:16:33;99413.00;;;11.64;95.35
32131;BME280;18639;50.716;7.086;2022-12-29T12:19:15;99448.53;;;11.82;95.00
32131;BME280;18639;50.716;7.086;2022-12-29T12:21:49;99440.22;;;11.79;96.30
32131;BME280;18639;50.716;7.086;2022-12-29T12:33:00;99462.34;;;11.72;92.46
32131;BME280;18639;50.716;7.086;2022-12-29T12:36:07;99478.59;;;11.74;95.34
32131;BME280;18639;50.716;7.086;2022-12-29T12:41:45;99473.69;;;11.60;94.67
32131;BME280;18639;50.716;7.086;2022-12-29T12:47:15;99490.38;;;11.67;93.17
32131;BME280;18639;50.716;7.086;2022-12-29T12:50:08;99498.84;;;11.69;94.02
32131;BME280;18639;50.716;7.086;2022-12-29T12:52:53;99483.31;;;11.69;91.88
32131;BME280;18639;50.716;7.086;2022-12-29T12:55:39;99458.44;;;11.57;90.83
32131;BME280;18639;50.716;7.086;2022-12-29T13:01:11;99466.47;;;11.54;91.54
32131;BME280;18639;50.716;7.086;2022-12-29T13:03:50;99488.16;;;11.62;91.54
32131;BME280;18639;50.716;7.086;2022-12-29T13:09:05;99497.81;;;11.60;91.18
32131;BME280;18639;50.716;7.086;2022-12-29T13:17:40;99486.47;;;11.52;95.19
32131;BME280;18639;50.716;7.086;2022-12-29T13:20:32;99501.56;;;11.67;96.06
32131;BME280;18639;50.716;7.086;2022-12-29T13:28:13;99489.75;;;11.54;94.24
32131;BME280;18639;50.716;7.086;2022-12-29T13:31:14;99497.69;;;11.62;94.71
32131;BME280;18639;50.716;7.086;2022-12-29T13:34:05;99510.75;;;11.60;93.49
32131;BME280;18639;50.716;7.086;2022-12-29T13:36:44;99514.38;;;11.69;96.67
32131;BME280;18639;50.716;7.086;2022-12-29T13:39:25;99502.38;;;11.68;94.24
32131;BME280;18639;50.716;7.086;2022-12-29T13:41:54;99519.34;;;11.61;93.46
32131;BME280;18639;50.716;7.086;2022-12-29T13:44:24;99520.03;;;11.63;94.08
32131;BME280;18639;50.716;7.086;2022-12-29T13:46:50;99504.81;;;11.49;93.93
32131;BME280;18639;50.716;7.086;2022-12-29T13:49:22;99520.53;;;11.57;93.40
32131;BME280;18639;50.716;7.086;2022-12-29T13:51:55;99526.16;;;11.62;94.61
32131;BME280;18639;50.716;7.086;2022-12-29T13:54:35;99509.53;;;11.44;93.77
32131;BME280;18639;50.716;7.086;2022-12-29T13:59:59;99511.19;;;11.45;94.84
32131;BME280;18639;50.716;7.086;2022-12-29T14:02:45;99516.75;;;11.40;94.99
32131;BME280;18639;50.716;7.086;2022-12-29T14:07:43;99514.81;;;11.53;94.09
32131;BME280;18639;50.716;7.086;2022-12-29T14:10:38;99526.22;;;11.51;93.74
32131;BME280;18639;50.716;7.086;2022-12-29T14:13:13;99515.75;;;11.52;95.39
32131;BME280;18639;50.716;7.086;2022-12-29T14:15:41;99531.16;;;11.54;93.93
32131;BME280;18639;50.716;7.086;2022-12-29T14:18:14;99511.69;;;11.38;94.58
32131;BME280;18639;50.716;7.086;2022-12-29T14:21:08;99527.56;;;11.34;93.32
32131;BME280;18639;50.716;7.086;2022-12-29T14:23:41;99545.09;;;11.42;93.50